Copiague, New York
Current Conditions -  °F | °C
As of 3:56 PM on Wednesday 26 Nov 2014 (Local Time) from KISP Reporting Station
Light Rain Light Rain  
Wind Chill: 29°   Ceiling: 700
Heat Index: 39°   Visibility: 1.5mi
Dew Point: 36°   Wind: 21mph
Humidity: 89%   Direction: 20°NNE
Pressure: 29.78"   Gusts: 31mph
Location:  40.69°N, 73.4°W
Report Text: KISP 262056Z 02018G27KT 1 1/2SM -RA BR OVC007 04/02 A2978 RMK AO2 PK WND 04027/2034 SFC VIS 5 SLP083 P0009 60037 T00390022 56067
Loading
Personal Weather Stations






























Interactive Weather Map New forecast layout! Learn more

10-Day Weather Forecast

Advertisements
Track Severe Weather on mobile